Head Waters, Virginia
Current Conditions -  °F | °C
As of 2:15 AM on Wednesday 22 Oct 2014 (Local Time) from KVBW Reporting Station
Overcast Overcast  
Wind Chill: 51°   Ceiling: 6000
Heat Index: 51°   Visibility: 10mi
Dew Point: 41°   Wind: 9mph
Humidity: 68%   Direction: 310°NW
Pressure: 29.93"   Gusts: NA
Location:  38.32°N, 79.41°W
Report Text: KVBW 220615Z AUTO 31008KT 10SM SCT036 OVC060 11/05 A2993 RMK AO2 T01070050
Loading
Personal Weather Stations






























Interactive Weather Map
Tropical Storm Tracking
New forecast layout! Learn more

10-Day Weather Forecast

Advertisements
Track Severe Weather on mobile